Villa Huidobro, Argentina
Current Conditions -  °F | °C
As of 8:00 PM on Tuesday 21 Oct 2014 (Local Time) from SAOC Reporting Station
Clear Clear  
Wind Chill: 81°   Ceiling: Unl
Heat Index: 81°   Visibility: 6mi
Dew Point: 57°   Wind: 24mph
Humidity: 45%   Direction: 360°N
Pressure: 29.88"   Gusts: 39mph
Location:  34.84°S, 64.58°W
Report Text: SAOC 212300Z 36021G34KT CAVOK 27/14 Q1012
Loading
Personal Weather Stations






























Interactive Weather Map
Tropical Storm Tracking
New forecast layout! Learn more

10-Day Weather Forecast

Advertisements
Track Severe Weather on mobile